sensor_id;sensor_type;location;lat;lon;timestamp;P1;durP1;ratioP1;P2;durP2;ratioP2
14272;SDS011;7220;49.450;11.052;2023-11-21T00:01:55;0.60;;;0.60;;
14272;SDS011;7220;49.450;11.052;2023-11-21T00:05:56;0.82;;;0.82;;
14272;SDS011;7220;49.450;11.052;2023-11-21T00:09:57;0.77;;;0.77;;
14272;SDS011;7220;49.450;11.052;2023-11-21T00:13:57;0.80;;;0.80;;
14272;SDS011;7220;49.450;11.052;2023-11-21T00:17:57;0.88;;;0.70;;
14272;SDS011;7220;49.450;11.052;2023-11-21T00:21:58;1.10;;;0.98;;
14272;SDS011;7220;49.450;11.052;2023-11-21T00:25:58;1.33;;;1.10;;
14272;SDS011;7220;49.450;11.052;2023-11-21T00:29:58;0.88;;;0.88;;
14272;SDS011;7220;49.450;11.052;2023-11-21T00:33:59;2.38;;;1.10;;
14272;SDS011;7220;49.450;11.052;2023-11-21T00:37:59;0.50;;;0.50;;
14272;SDS011;7220;49.450;11.052;2023-11-21T00:41:59;0.50;;;0.50;;
14272;SDS011;7220;49.450;11.052;2023-11-21T00:45:59;1.17;;;1.10;;
14272;SDS011;7220;49.450;11.052;2023-11-21T00:50:04;0.85;;;0.75;;
14272;SDS011;7220;49.450;11.052;2023-11-21T00:54:08;2.03;;;1.00;;
14272;SDS011;7220;49.450;11.052;2023-11-21T00:58:08;1.80;;;1.23;;
14272;SDS011;7220;49.450;11.052;2023-11-21T01:02:10;1.00;;;1.00;;
14272;SDS011;7220;49.450;11.052;2023-11-21T01:06:10;3.00;;;1.33;;
14272;SDS011;7220;49.450;11.052;2023-11-21T01:10:11;2.38;;;1.17;;
14272;SDS011;7220;49.450;11.052;2023-11-21T01:14:11;0.98;;;0.88;;
14272;SDS011;7220;49.450;11.052;2023-11-21T01:18:13;1.55;;;1.45;;
14272;SDS011;7220;49.450;11.052;2023-11-21T01:22:13;2.10;;;1.10;;
14272;SDS011;7220;49.450;11.052;2023-11-21T01:26:13;1.33;;;1.10;;
14272;SDS011;7220;49.450;11.052;2023-11-21T01:30:14;1.13;;;0.98;;
14272;SDS011;7220;49.450;11.052;2023-11-21T01:34:14;0.90;;;0.90;;
14272;SDS011;7220;49.450;11.052;2023-11-21T01:38:14;0.70;;;0.70;;
14272;SDS011;7220;49.450;11.052;2023-11-21T01:42:17;1.75;;;0.98;;
14272;SDS011;7220;49.450;11.052;2023-11-21T01:46:19;0.90;;;0.90;;
14272;SDS011;7220;49.450;11.052;2023-11-21T01:50:20;1.15;;;0.85;;
14272;SDS011;7220;49.450;11.052;2023-11-21T01:54:22;1.15;;;0.75;;
14272;SDS011;7220;49.450;11.052;2023-11-21T01:58:22;1.08;;;0.80;;
14272;SDS011;7220;49.450;11.052;2023-11-21T02:02:23;0.70;;;0.70;;
14272;SDS011;7220;49.450;11.052;2023-11-21T02:06:24;0.65;;;0.65;;
14272;SDS011;7220;49.450;11.052;2023-11-21T02:10:25;0.90;;;0.90;;
14272;SDS011;7220;49.450;11.052;2023-11-21T02:14:26;1.13;;;0.80;;
14272;SDS011;7220;49.450;11.052;2023-11-21T02:18:27;1.50;;;0.85;;
14272;SDS011;7220;49.450;11.052;2023-11-21T02:22:29;2.38;;;0.93;;
14272;SDS011;7220;49.450;11.052;2023-11-21T02:26:31;2.63;;;1.00;;
14272;SDS011;7220;49.450;11.052;2023-11-21T02:30:31;0.75;;;0.75;;
14272;SDS011;7220;49.450;11.052;2023-11-21T02:34:32;1.65;;;0.90;;
14272;SDS011;7220;49.450;11.052;2023-11-21T02:38:33;1.15;;;0.77;;
14272;SDS011;7220;49.450;11.052;2023-11-21T02:42:33;1.33;;;0.93;;
14272;SDS011;7220;49.450;11.052;2023-11-21T02:46:34;2.28;;;1.00;;
14272;SDS011;7220;49.450;11.052;2023-11-21T02:50:35;1.00;;;0.85;;
14272;SDS011;7220;49.450;11.052;2023-11-21T02:54:35;1.17;;;0.80;;
14272;SDS011;7220;49.450;11.052;2023-11-21T02:58:36;1.05;;;0.90;;
14272;SDS011;7220;49.450;11.052;2023-11-21T03:02:36;1.63;;;1.05;;
14272;SDS011;7220;49.450;11.052;2023-11-21T03:06:39;0.70;;;0.70;;
14272;SDS011;7220;49.450;11.052;2023-11-21T03:10:39;0.73;;;0.73;;
14272;SDS011;7220;49.450;11.052;2023-11-21T03:14:39;0.80;;;0.80;;
14272;SDS011;7220;49.450;11.052;2023-11-21T03:18:40;1.17;;;1.08;;
14272;SDS011;7220;49.450;11.052;2023-11-21T03:22:40;1.08;;;0.98;;
14272;SDS011;7220;49.450;11.052;2023-11-21T03:26:41;1.77;;;1.20;;
14272;SDS011;7220;49.450;11.052;2023-11-21T03:30:41;2.10;;;0.95;;
14272;SDS011;7220;49.450;11.052;2023-11-21T03:34:57;2.53;;;1.02;;
14272;SDS011;7220;49.450;11.052;2023-11-21T03:38:58;1.65;;;1.55;;
14272;SDS011;7220;49.450;11.052;2023-11-21T03:42:58;0.73;;;0.73;;
14272;SDS011;7220;49.450;11.052;2023-11-21T03:46:58;0.90;;;0.90;;
14272;SDS011;7220;49.450;11.052;2023-11-21T03:50:59;1.45;;;1.17;;
14272;SDS011;7220;49.450;11.052;2023-11-21T03:54:59;1.15;;;1.05;;
14272;SDS011;7220;49.450;11.052;2023-11-21T03:58:59;1.23;;;1.13;;
14272;SDS011;7220;49.450;11.052;2023-11-21T04:03:00;0.85;;;0.85;;
14272;SDS011;7220;49.450;11.052;2023-11-21T04:07:00;0.60;;;0.60;;
14272;SDS011;7220;49.450;11.052;2023-11-21T04:11:00;0.80;;;0.80;;
14272;SDS011;7220;49.450;11.052;2023-11-21T04:15:01;0.90;;;0.90;;
14272;SDS011;7220;49.450;11.052;2023-11-21T04:19:01;1.83;;;1.10;;
14272;SDS011;7220;49.450;11.052;2023-11-21T04:23:02;1.02;;;1.00;;
14272;SDS011;7220;49.450;11.052;2023-11-21T04:27:03;0.95;;;0.95;;
14272;SDS011;7220;49.450;11.052;2023-11-21T04:31:03;0.90;;;0.90;;
14272;SDS011;7220;49.450;11.052;2023-11-21T04:35:04;0.80;;;0.80;;
14272;SDS011;7220;49.450;11.052;2023-11-21T04:39:04;0.90;;;0.88;;
14272;SDS011;7220;49.450;11.052;2023-11-21T04:43:06;0.88;;;0.85;;
14272;SDS011;7220;49.450;11.052;2023-11-21T04:47:06;1.20;;;1.10;;
14272;SDS011;7220;49.450;11.052;2023-11-21T04:51:07;0.85;;;0.82;;
14272;SDS011;7220;49.450;11.052;2023-11-21T04:55:07;2.58;;;1.10;;
14272;SDS011;7220;49.450;11.052;2023-11-21T04:59:10;1.13;;;1.10;;
14272;SDS011;7220;49.450;11.052;2023-11-21T05:03:10;0.70;;;0.70;;
14272;SDS011;7220;49.450;11.052;2023-11-21T05:07:10;0.98;;;0.98;;
14272;SDS011;7220;49.450;11.052;2023-11-21T05:11:12;0.90;;;0.90;;
14272;SDS011;7220;49.450;11.052;2023-11-21T05:15:13;1.23;;;1.13;;
14272;SDS011;7220;49.450;11.052;2023-11-21T05:19:14;2.13;;;0.95;;
14272;SDS011;7220;49.450;11.052;2023-11-21T05:23:15;0.90;;;0.90;;
14272;SDS011;7220;49.450;11.052;2023-11-21T05:27:15;1.15;;;1.02;;
14272;SDS011;7220;49.450;11.052;2023-11-21T05:31:16;1.30;;;1.00;;
14272;SDS011;7220;49.450;11.052;2023-11-21T05:35:16;2.92;;;1.17;;
14272;SDS011;7220;49.450;11.052;2023-11-21T05:39:16;2.00;;;1.05;;
14272;SDS011;7220;49.450;11.052;2023-11-21T05:43:17;1.00;;;0.98;;
14272;SDS011;7220;49.450;11.052;2023-11-21T05:47:18;1.65;;;1.25;;
14272;SDS011;7220;49.450;11.052;2023-11-21T05:51:18;1.30;;;1.20;;
14272;SDS011;7220;49.450;11.052;2023-11-21T05:55:19;1.23;;;1.15;;
14272;SDS011;7220;49.450;11.052;2023-11-21T05:59:21;1.05;;;1.05;;
14272;SDS011;7220;49.450;11.052;2023-11-21T06:03:21;1.17;;;1.15;;
14272;SDS011;7220;49.450;11.052;2023-11-21T06:07:23;1.92;;;1.65;;
14272;SDS011;7220;49.450;11.052;2023-11-21T06:11:23;1.65;;;1.27;;
14272;SDS011;7220;49.450;11.052;2023-11-21T06:15:24;2.65;;;1.73;;
14272;SDS011;7220;49.450;11.052;2023-11-21T06:19:24;1.17;;;1.08;;
14272;SDS011;7220;49.450;11.052;2023-11-21T06:23:25;1.52;;;1.30;;
14272;SDS011;7220;49.450;11.052;2023-11-21T06:27:25;3.08;;;2.00;;
14272;SDS011;7220;49.450;11.052;2023-11-21T06:31:25;1.73;;;1.42;;
14272;SDS011;7220;49.450;11.052;2023-11-21T06:35:26;1.83;;;1.70;;
14272;SDS011;7220;49.450;11.052;2023-11-21T06:39:30;2.03;;;1.70;;
14272;SDS011;7220;49.450;11.052;2023-11-21T06:43:30;1.67;;;1.57;;
14272;SDS011;7220;49.450;11.052;2023-11-21T06:47:33;1.63;;;1.52;;
14272;SDS011;7220;49.450;11.052;2023-11-21T06:51:34;4.80;;;1.65;;
14272;SDS011;7220;49.450;11.052;2023-11-21T06:55:34;1.63;;;1.52;;
14272;SDS011;7220;49.450;11.052;2023-11-21T06:59:35;1.95;;;1.55;;
14272;SDS011;7220;49.450;11.052;2023-11-21T07:03:36;2.20;;;1.58;;
14272;SDS011;7220;49.450;11.052;2023-11-21T07:07:37;2.42;;;1.73;;
14272;SDS011;7220;49.450;11.052;2023-11-21T07:11:37;1.88;;;1.45;;
14272;SDS011;7220;49.450;11.052;2023-11-21T07:15:38;2.38;;;1.70;;
14272;SDS011;7220;49.450;11.052;2023-11-21T07:19:38;1.77;;;1.67;;
14272;SDS011;7220;49.450;11.052;2023-11-21T07:23:39;2.03;;;1.67;;
14272;SDS011;7220;49.450;11.052;2023-11-21T07:27:39;2.15;;;1.70;;
14272;SDS011;7220;49.450;11.052;2023-11-21T07:31:40;1.80;;;1.70;;
14272;SDS011;7220;49.450;11.052;2023-11-21T07:35:41;1.70;;;1.60;;
14272;SDS011;7220;49.450;11.052;2023-11-21T07:39:41;3.28;;;1.67;;
14272;SDS011;7220;49.450;11.052;2023-11-21T07:43:42;2.33;;;2.10;;
14272;SDS011;7220;49.450;11.052;2023-11-21T07:47:42;2.60;;;1.73;;
14272;SDS011;7220;49.450;11.052;2023-11-21T07:51:43;2.08;;;1.73;;
14272;SDS011;7220;49.450;11.052;2023-11-21T07:55:44;3.67;;;1.90;;
14272;SDS011;7220;49.450;11.052;2023-11-21T07:59:45;4.30;;;1.65;;
14272;SDS011;7220;49.450;11.052;2023-11-21T08:03:45;3.05;;;1.85;;
14272;SDS011;7220;49.450;11.052;2023-11-21T08:07:47;2.00;;;1.83;;
14272;SDS011;7220;49.450;11.052;2023-11-21T08:11:47;2.00;;;1.83;;
14272;SDS011;7220;49.450;11.052;2023-11-21T08:15:47;2.72;;;1.60;;
14272;SDS011;7220;49.450;11.052;2023-11-21T08:19:48;2.78;;;2.30;;
14272;SDS011;7220;49.450;11.052;2023-11-21T08:23:49;2.42;;;1.60;;
14272;SDS011;7220;49.450;11.052;2023-11-21T08:27:53;2.95;;;1.88;;
14272;SDS011;7220;49.450;11.052;2023-11-21T08:31:54;2.13;;;1.70;;
14272;SDS011;7220;49.450;11.052;2023-11-21T08:35:54;1.92;;;1.60;;
14272;SDS011;7220;49.450;11.052;2023-11-21T08:39:54;2.47;;;2.05;;
14272;SDS011;7220;49.450;11.052;2023-11-21T08:43:55;2.90;;;2.15;;
14272;SDS011;7220;49.450;11.052;2023-11-21T08:47:56;2.22;;;2.03;;
14272;SDS011;7220;49.450;11.052;2023-11-21T08:51:56;2.72;;;1.98;;
14272;SDS011;7220;49.450;11.052;2023-11-21T08:55:59;2.85;;;2.10;;
14272;SDS011;7220;49.450;11.052;2023-11-21T08:59:59;2.25;;;1.95;;
14272;SDS011;7220;49.450;11.052;2023-11-21T09:04:00;2.70;;;2.20;;
14272;SDS011;7220;49.450;11.052;2023-11-21T09:08:00;3.50;;;2.20;;
14272;SDS011;7220;49.450;11.052;2023-11-21T09:12:01;4.05;;;2.47;;
14272;SDS011;7220;49.450;11.052;2023-11-21T09:16:01;3.90;;;3.50;;
14272;SDS011;7220;49.450;11.052;2023-11-21T09:20:02;4.32;;;2.90;;
14272;SDS011;7220;49.450;11.052;2023-11-21T09:24:05;3.63;;;2.63;;
14272;SDS011;7220;49.450;11.052;2023-11-21T09:28:06;2.75;;;2.50;;
14272;SDS011;7220;49.450;11.052;2023-11-21T09:32:09;4.40;;;2.95;;
14272;SDS011;7220;49.450;11.052;2023-11-21T09:36:11;3.40;;;2.53;;
14272;SDS011;7220;49.450;11.052;2023-11-21T09:40:14;4.75;;;2.42;;
14272;SDS011;7220;49.450;11.052;2023-11-21T09:44:22;3.97;;;2.35;;
14272;SDS011;7220;49.450;11.052;2023-11-21T09:48:33;4.60;;;3.22;;
14272;SDS011;7220;49.450;11.052;2023-11-21T09:52:43;2.47;;;2.28;;
14272;SDS011;7220;49.450;11.052;2023-11-21T09:56:54;2.53;;;2.30;;
14272;SDS011;7220;49.450;11.052;2023-11-21T10:00:55;3.58;;;3.22;;
14272;SDS011;7220;49.450;11.052;2023-11-21T10:04:58;4.75;;;2.60;;
14272;SDS011;7220;49.450;11.052;2023-11-21T10:09:00;2.75;;;2.20;;
14272;SDS011;7220;49.450;11.052;2023-11-21T10:13:01;5.13;;;3.10;;
14272;SDS011;7220;49.450;11.052;2023-11-21T10:17:06;3.85;;;2.50;;
14272;SDS011;7220;49.450;11.052;2023-11-21T10:21:08;4.00;;;2.85;;
14272;SDS011;7220;49.450;11.052;2023-11-21T10:25:09;2.95;;;2.35;;
14272;SDS011;7220;49.450;11.052;2023-11-21T10:29:10;3.45;;;2.78;;
14272;SDS011;7220;49.450;11.052;2023-11-21T10:33:16;4.18;;;2.78;;
14272;SDS011;7220;49.450;11.052;2023-11-21T10:37:17;3.50;;;2.47;;
14272;SDS011;7220;49.450;11.052;2023-11-21T10:41:17;3.85;;;2.83;;
14272;SDS011;7220;49.450;11.052;2023-11-21T10:45:18;5.43;;;2.47;;
14272;SDS011;7220;49.450;11.052;2023-11-21T10:49:18;3.20;;;2.60;;
14272;SDS011;7220;49.450;11.052;2023-11-21T10:53:20;3.58;;;2.33;;
14272;SDS011;7220;49.450;11.052;2023-11-21T10:57:22;3.47;;;2.58;;
14272;SDS011;7220;49.450;11.052;2023-11-21T11:01:23;3.03;;;2.30;;
14272;SDS011;7220;49.450;11.052;2023-11-21T11:05:29;3.80;;;2.75;;
14272;SDS011;7220;49.450;11.052;2023-11-21T11:09:32;2.72;;;2.10;;
14272;SDS011;7220;49.450;11.052;2023-11-21T11:13:33;3.13;;;2.22;;
14272;SDS011;7220;49.450;11.052;2023-11-21T11:17:37;1.90;;;1.63;;
14272;SDS011;7220;49.450;11.052;2023-11-21T11:25:51;2.40;;;1.75;;
14272;SDS011;7220;49.450;11.052;2023-11-21T11:34:11;2.22;;;2.05;;
14272;SDS011;7220;49.450;11.052;2023-11-21T11:38:33;2.50;;;1.80;;
14272;SDS011;7220;49.450;11.052;2023-11-21T11:42:35;1.45;;;1.35;;
14272;SDS011;7220;49.450;11.052;2023-11-21T11:46:45;1.88;;;1.75;;
14272;SDS011;7220;49.450;11.052;2023-11-21T11:55:25;2.42;;;1.50;;
14272;SDS011;7220;49.450;11.052;2023-11-21T11:59:25;3.50;;;2.13;;
14272;SDS011;7220;49.450;11.052;2023-11-21T12:03:26;1.90;;;1.70;;
14272;SDS011;7220;49.450;11.052;2023-11-21T12:07:38;1.65;;;1.55;;
14272;SDS011;7220;49.450;11.052;2023-11-21T12:11:46;3.08;;;1.90;;
14272;SDS011;7220;49.450;11.052;2023-11-21T12:15:48;2.05;;;1.80;;
14272;SDS011;7220;49.450;11.052;2023-11-21T12:19:48;1.70;;;1.60;;
14272;SDS011;7220;49.450;11.052;2023-11-21T12:23:51;2.08;;;1.90;;
14272;SDS011;7220;49.450;11.052;2023-11-21T12:27:52;3.13;;;2.20;;
14272;SDS011;7220;49.450;11.052;2023-11-21T12:31:52;2.50;;;2.30;;
14272;SDS011;7220;49.450;11.052;2023-11-21T12:35:53;2.47;;;1.90;;
14272;SDS011;7220;49.450;11.052;2023-11-21T12:39:53;2.22;;;2.03;;
14272;SDS011;7220;49.450;11.052;2023-11-21T12:43:57;2.70;;;2.40;;
14272;SDS011;7220;49.450;11.052;2023-11-21T12:52:07;3.10;;;2.45;;
14272;SDS011;7220;49.450;11.052;2023-11-21T12:56:11;3.60;;;2.60;;
14272;SDS011;7220;49.450;11.052;2023-11-21T13:00:12;4.68;;;2.92;;
14272;SDS011;7220;49.450;11.052;2023-11-21T13:04:29;3.25;;;2.63;;
14272;SDS011;7220;49.450;11.052;2023-11-21T13:08:31;2.35;;;2.15;;
14272;SDS011;7220;49.450;11.052;2023-11-21T13:12:32;3.50;;;2.17;;
14272;SDS011;7220;49.450;11.052;2023-11-21T13:16:35;4.38;;;2.28;;
14272;SDS011;7220;49.450;11.052;2023-11-21T13:20:35;3.60;;;2.38;;
14272;SDS011;7220;49.450;11.052;2023-11-21T13:24:35;1.85;;;1.65;;
14272;SDS011;7220;49.450;11.052;2023-11-21T13:28:36;2.35;;;2.08;;
14272;SDS011;7220;49.450;11.052;2023-11-21T13:32:37;2.92;;;1.90;;
14272;SDS011;7220;49.450;11.052;2023-11-21T13:36:37;2.72;;;2.42;;
14272;SDS011;7220;49.450;11.052;2023-11-21T13:40:38;3.70;;;2.08;;
14272;SDS011;7220;49.450;11.052;2023-11-21T13:44:42;2.33;;;2.00;;
14272;SDS011;7220;49.450;11.052;2023-11-21T13:48:46;2.10;;;1.58;;
14272;SDS011;7220;49.450;11.052;2023-11-21T13:52:55;1.98;;;1.70;;
14272;SDS011;7220;49.450;11.052;2023-11-21T13:56:56;2.50;;;1.85;;
14272;SDS011;7220;49.450;11.052;2023-11-21T14:00:56;2.78;;;1.70;;
14272;SDS011;7220;49.450;11.052;2023-11-21T14:04:57;1.75;;;1.65;;
14272;SDS011;7220;49.450;11.052;2023-11-21T14:09:00;2.17;;;1.90;;
14272;SDS011;7220;49.450;11.052;2023-11-21T14:13:05;1.65;;;1.30;;
14272;SDS011;7220;49.450;11.052;2023-11-21T14:17:06;1.33;;;1.27;;
14272;SDS011;7220;49.450;11.052;2023-11-21T14:21:06;1.50;;;1.40;;
14272;SDS011;7220;49.450;11.052;2023-11-21T14:25:08;1.65;;;1.55;;
14272;SDS011;7220;49.450;11.052;2023-11-21T14:29:11;1.13;;;1.00;;
14272;SDS011;7220;49.450;11.052;2023-11-21T14:33:14;2.55;;;1.70;;
14272;SDS011;7220;49.450;11.052;2023-11-21T14:37:16;1.73;;;1.42;;
14272;SDS011;7220;49.450;11.052;2023-11-21T14:41:16;1.52;;;1.42;;
14272;SDS011;7220;49.450;11.052;2023-11-21T14:45:17;1.27;;;1.17;;
14272;SDS011;7220;49.450;11.052;2023-11-21T14:49:19;1.73;;;1.30;;
14272;SDS011;7220;49.450;11.052;2023-11-21T14:53:20;3.97;;;1.25;;
14272;SDS011;7220;49.450;11.052;2023-11-21T14:57:40;2.83;;;1.55;;
14272;SDS011;7220;49.450;11.052;2023-11-21T15:01:40;1.83;;;1.38;;
14272;SDS011;7220;49.450;11.052;2023-11-21T15:05:55;2.38;;;1.30;;
14272;SDS011;7220;49.450;11.052;2023-11-21T15:09:55;1.30;;;1.20;;
14272;SDS011;7220;49.450;11.052;2023-11-21T15:13:56;2.85;;;1.60;;
14272;SDS011;7220;49.450;11.052;2023-11-21T15:17:58;1.80;;;1.70;;
14272;SDS011;7220;49.450;11.052;2023-11-21T15:21:58;1.48;;;1.38;;
14272;SDS011;7220;49.450;11.052;2023-11-21T15:25:58;3.38;;;1.42;;
14272;SDS011;7220;49.450;11.052;2023-11-21T15:29:59;4.32;;;1.60;;
14272;SDS011;7220;49.450;11.052;2023-11-21T15:33:59;1.40;;;1.30;;
14272;SDS011;7220;49.450;11.052;2023-11-21T15:38:00;2.35;;;2.08;;
14272;SDS011;7220;49.450;11.052;2023-11-21T15:42:00;2.22;;;1.90;;
14272;SDS011;7220;49.450;11.052;2023-11-21T15:46:00;2.08;;;1.55;;
14272;SDS011;7220;49.450;11.052;2023-11-21T15:50:06;3.83;;;1.70;;
14272;SDS011;7220;49.450;11.052;2023-11-21T15:54:10;2.08;;;1.55;;
14272;SDS011;7220;49.450;11.052;2023-11-21T15:58:10;2.22;;;1.98;;
14272;SDS011;7220;49.450;11.052;2023-11-21T16:02:11;4.18;;;2.50;;
14272;SDS011;7220;49.450;11.052;2023-11-21T16:06:11;4.15;;;2.20;;
14272;SDS011;7220;49.450;11.052;2023-11-21T16:10:12;3.60;;;2.85;;
14272;SDS011;7220;49.450;11.052;2023-11-21T16:14:15;2.88;;;2.22;;
14272;SDS011;7220;49.450;11.052;2023-11-21T16:18:19;3.75;;;2.30;;
14272;SDS011;7220;49.450;11.052;2023-11-21T16:22:19;5.88;;;2.92;;
14272;SDS011;7220;49.450;11.052;2023-11-21T16:26:20;3.10;;;2.30;;
14272;SDS011;7220;49.450;11.052;2023-11-21T16:30:20;3.28;;;1.90;;
14272;SDS011;7220;49.450;11.052;2023-11-21T16:34:23;3.33;;;2.00;;
14272;SDS011;7220;49.450;11.052;2023-11-21T16:38:23;4.55;;;2.30;;
14272;SDS011;7220;49.450;11.052;2023-11-21T16:42:24;5.75;;;2.58;;
14272;SDS011;7220;49.450;11.052;2023-11-21T16:46:25;3.78;;;2.22;;
14272;SDS011;7220;49.450;11.052;2023-11-21T16:50:25;4.13;;;2.80;;
14272;SDS011;7220;49.450;11.052;2023-11-21T16:54:25;5.05;;;2.45;;
14272;SDS011;7220;49.450;11.052;2023-11-21T16:58:26;4.10;;;2.38;;
14272;SDS011;7220;49.450;11.052;2023-11-21T17:02:27;4.17;;;2.50;;
14272;SDS011;7220;49.450;11.052;2023-11-21T17:06:27;6.47;;;2.60;;
14272;SDS011;7220;49.450;11.052;2023-11-21T17:10:28;4.03;;;2.10;;
14272;SDS011;7220;49.450;11.052;2023-11-21T17:14:28;4.05;;;2.47;;
14272;SDS011;7220;49.450;11.052;2023-11-21T17:18:28;5.63;;;3.30;;
14272;SDS011;7220;49.450;11.052;2023-11-21T17:22:29;5.35;;;2.58;;
14272;SDS011;7220;49.450;11.052;2023-11-21T17:26:29;3.95;;;2.67;;
14272;SDS011;7220;49.450;11.052;2023-11-21T17:30:31;4.90;;;2.35;;
14272;SDS011;7220;49.450;11.052;2023-11-21T17:34:31;4.35;;;2.80;;
14272;SDS011;7220;49.450;11.052;2023-11-21T17:38:31;3.90;;;2.58;;
14272;SDS011;7220;49.450;11.052;2023-11-21T17:42:32;3.17;;;2.28;;
14272;SDS011;7220;49.450;11.052;2023-11-21T19:46:12;6.22;;;3.35;;
14272;SDS011;7220;49.450;11.052;2023-11-21T19:50:13;4.55;;;3.72;;
14272;SDS011;7220;49.450;11.052;2023-11-21T19:54:16;4.28;;;3.22;;
14272;SDS011;7220;49.450;11.052;2023-11-21T19:58:16;2.78;;;2.33;;
14272;SDS011;7220;49.450;11.052;2023-11-21T20:02:17;2.08;;;1.85;;
14272;SDS011;7220;49.450;11.052;2023-11-21T20:06:18;2.10;;;1.92;;
14272;SDS011;7220;49.450;11.052;2023-11-21T20:10:19;2.67;;;1.92;;
14272;SDS011;7220;49.450;11.052;2023-11-21T20:14:21;2.13;;;1.92;;
14272;SDS011;7220;49.450;11.052;2023-11-21T20:18:21;1.92;;;1.67;;
14272;SDS011;7220;49.450;11.052;2023-11-21T20:22:21;1.50;;;1.40;;
14272;SDS011;7220;49.450;11.052;2023-11-21T20:26:22;1.58;;;1.48;;
14272;SDS011;7220;49.450;11.052;2023-11-21T20:30:23;1.17;;;1.17;;
14272;SDS011;7220;49.450;11.052;2023-11-21T20:34:27;1.08;;;1.08;;
14272;SDS011;7220;49.450;11.052;2023-11-21T20:38:27;0.90;;;0.75;;
14272;SDS011;7220;49.450;11.052;2023-11-21T20:42:27;1.05;;;1.05;;
14272;SDS011;7220;49.450;11.052;2023-11-21T20:46:31;1.75;;;1.15;;
14272;SDS011;7220;49.450;11.052;2023-11-21T20:50:31;1.25;;;1.10;;
14272;SDS011;7220;49.450;11.052;2023-11-21T20:54:32;1.80;;;1.05;;
14272;SDS011;7220;49.450;11.052;2023-11-21T20:58:32;1.17;;;1.17;;
14272;SDS011;7220;49.450;11.052;2023-11-21T21:02:32;1.17;;;1.17;;
14272;SDS011;7220;49.450;11.052;2023-11-21T21:06:33;1.38;;;1.27;;
14272;SDS011;7220;49.450;11.052;2023-11-21T21:10:33;1.15;;;1.05;;
14272;SDS011;7220;49.450;11.052;2023-11-21T21:14:33;1.52;;;1.17;;
14272;SDS011;7220;49.450;11.052;2023-11-21T21:18:34;1.35;;;1.33;;
14272;SDS011;7220;49.450;11.052;2023-11-21T21:22:34;1.70;;;1.27;;
14272;SDS011;7220;49.450;11.052;2023-11-21T21:26:34;1.77;;;1.67;;
14272;SDS011;7220;49.450;11.052;2023-11-21T21:30:35;1.30;;;1.13;;
14272;SDS011;7220;49.450;11.052;2023-11-21T21:34:35;1.50;;;1.40;;
14272;SDS011;7220;49.450;11.052;2023-11-21T21:38:37;1.77;;;1.58;;
14272;SDS011;7220;49.450;11.052;2023-11-21T21:42:39;2.00;;;1.80;;
14272;SDS011;7220;49.450;11.052;2023-11-21T21:46:39;1.40;;;1.30;;
14272;SDS011;7220;49.450;11.052;2023-11-21T21:50:40;2.85;;;1.98;;
14272;SDS011;7220;49.450;11.052;2023-11-21T21:54:40;1.98;;;1.75;;
14272;SDS011;7220;49.450;11.052;2023-11-21T21:58:40;1.92;;;1.70;;
14272;SDS011;7220;49.450;11.052;2023-11-21T22:02:41;1.20;;;1.10;;
14272;SDS011;7220;49.450;11.052;2023-11-21T22:06:42;2.67;;;1.20;;
14272;SDS011;7220;49.450;11.052;2023-11-21T22:10:42;2.00;;;1.10;;
14272;SDS011;7220;49.450;11.052;2023-11-21T22:14:43;1.45;;;1.27;;
14272;SDS011;7220;49.450;11.052;2023-11-21T22:18:43;1.23;;;1.13;;
14272;SDS011;7220;49.450;11.052;2023-11-21T22:22:43;1.40;;;1.30;;
14272;SDS011;7220;49.450;11.052;2023-11-21T22:26:44;1.48;;;1.27;;
14272;SDS011;7220;49.450;11.052;2023-11-21T22:30:44;2.22;;;1.25;;
14272;SDS011;7220;49.450;11.052;2023-11-21T22:34:44;2.78;;;1.90;;
14272;SDS011;7220;49.450;11.052;2023-11-21T22:38:45;0.98;;;0.98;;
14272;SDS011;7220;49.450;11.052;2023-11-21T22:42:45;1.38;;;1.27;;
14272;SDS011;7220;49.450;11.052;2023-11-21T22:46:46;1.35;;;1.13;;
14272;SDS011;7220;49.450;11.052;2023-11-21T22:50:47;1.55;;;1.27;;
14272;SDS011;7220;49.450;11.052;2023-11-21T22:54:47;1.73;;;1.50;;
14272;SDS011;7220;49.450;11.052;2023-11-21T22:58:47;2.45;;;1.50;;
14272;SDS011;7220;49.450;11.052;2023-11-21T23:02:48;1.48;;;1.38;;
14272;SDS011;7220;49.450;11.052;2023-11-21T23:06:49;1.77;;;1.42;;
14272;SDS011;7220;49.450;11.052;2023-11-21T23:10:49;2.53;;;1.55;;
14272;SDS011;7220;49.450;11.052;2023-11-21T23:14:50;2.08;;;1.55;;
14272;SDS011;7220;49.450;11.052;2023-11-21T23:18:50;1.83;;;1.60;;
14272;SDS011;7220;49.450;11.052;2023-11-21T23:22:52;3.53;;;2.05;;
14272;SDS011;7220;49.450;11.052;2023-11-21T23:26:53;3.53;;;1.92;;
14272;SDS011;7220;49.450;11.052;2023-11-21T23:30:53;2.95;;;1.90;;
14272;SDS011;7220;49.450;11.052;2023-11-21T23:34:54;1.70;;;1.60;;
14272;SDS011;7220;49.450;11.052;2023-11-21T23:38:54;1.75;;;1.65;;
14272;SDS011;7220;49.450;11.052;2023-11-21T23:42:54;2.15;;;1.92;;
14272;SDS011;7220;49.450;11.052;2023-11-21T23:46:54;2.67;;;1.85;;
14272;SDS011;7220;49.450;11.052;2023-11-21T23:50:55;2.30;;;1.88;;
14272;SDS011;7220;49.450;11.052;2023-11-21T23:54:56;2.55;;;2.35;;
14272;SDS011;7220;49.450;11.052;2023-11-21T23:58:56;2.88;;;2.13;;
